Time;durP1;ratioP1;P1;durP2;ratioP2;P2;SDS_P1;SDS_P2;PMS_P1;PMS_P2;Temp;Humidity;BMP_temperature;BMP_pressure;BME280_temperature;BME280_humidity;BME280_pressure;Samples;Min_cycle;Max_cycle;Signal;HPM_P1;HPM_P2
2023/12/06 00:00:46;;;;;;;18.35;6.03;;;;;;;-9.91;67.79;102375.31;5057671;28;20048;-73
2023/12/06 00:03:13;;;;;;;8.93;3.60;;;;;;;-9.92;68.49;102376.06;5063784;28;20086;-73
2023/12/06 00:05:40;;;;;;;11.20;4.40;;;;;;;-9.94;67.77;102364.91;5056610;28;20546;-73
2023/12/06 00:08:07;;;;;;;11.98;4.47;;;;;;;-9.97;68.23;102364.66;5062783;28;20066;-72
2023/12/06 00:10:34;;;;;;;13.75;4.05;;;;;;;-9.98;68.01;102367.97;5062557;28;20076;-73
2023/12/06 00:13:02;;;;;;;8.70;3.08;;;;;;;-10.01;68.54;102375.28;5061437;28;20075;-73
2023/12/06 00:15:29;;;;;;;6.10;2.22;;;;;;;-10.03;68.43;102366.66;5059689;28;20102;-73
2023/12/06 00:17:56;;;;;;;7.15;2.58;;;;;;;-10.05;68.29;102363.13;5059018;28;20077;-73
2023/12/06 00:20:23;;;;;;;9.15;3.42;;;;;;;-10.07;68.59;102359.59;5057278;28;20128;-73
2023/12/06 00:22:50;;;;;;;7.10;2.75;;;;;;;-10.12;68.22;102356.66;5059930;28;20064;-73
2023/12/06 00:25:17;;;;;;;9.77;2.90;;;;;;;-10.12;68.36;102366.78;5061870;28;20048;-76
2023/12/06 00:27:44;;;;;;;7.72;2.80;;;;;;;-10.14;68.46;102364.88;5058984;28;20451;-73
2023/12/06 00:30:13;;;;;;;6.40;2.40;;;;;;;-10.16;67.97;102366.41;5059857;28;20074;-73
2023/12/06 00:32:39;;;;;;;8.65;2.40;;;;;;;-10.16;67.95;102379.06;5062174;28;20087;-73
2023/12/06 00:35:09;;;;;;;5.97;1.92;;;;;;;-10.20;67.79;102382.06;5057907;28;20076;-72
2023/12/06 00:37:36;;;;;;;12.35;3.17;;;;;;;-10.22;68.45;102374.34;5059637;28;20048;-73
2023/12/06 00:40:04;;;;;;;6.28;1.83;;;;;;;-10.24;67.90;102385.09;5061726;28;20552;-73
2023/12/06 00:42:31;;;;;;;7.93;2.38;;;;;;;-10.25;67.86;102388.34;5059776;28;20112;-73
2023/12/06 00:44:59;;;;;;;7.95;2.33;;;;;;;-10.27;68.34;102385.69;5060634;28;20856;-73
2023/12/06 00:47:26;;;;;;;10.13;2.75;;;;;;;-10.29;68.22;102385.56;5061782;28;20132;-72
2023/12/06 00:49:53;;;;;;;6.38;2.53;;;;;;;-10.32;67.90;102380.22;5063668;28;20047;-71
2023/12/06 00:52:20;;;;;;;6.28;2.95;;;;;;;-10.35;68.30;102387.56;5060117;28;20120;-71
2023/12/06 00:54:49;;;;;;;12.65;3.80;;;;;;;-10.35;67.68;102391.72;5060127;28;20119;-71
2023/12/06 00:57:16;;;;;;;15.07;4.97;;;;;;;-10.38;67.90;102396.53;5057849;28;20044;-71
2023/12/06 00:59:43;;;;;;;10.48;4.22;;;;;;;-10.41;68.40;102393.72;5054698;28;20048;-73
2023/12/06 01:02:10;;;;;;;10.70;4.00;;;;;;;-10.44;68.33;102391.81;5060617;28;20514;-73
2023/12/06 01:04:38;;;;;;;11.90;3.83;;;;;;;-10.47;68.03;102396.63;5059028;28;20150;-72
2023/12/06 01:07:05;;;;;;;6.88;2.53;;;;;;;-10.47;67.97;102398.25;5060999;28;20080;-72
2023/12/06 01:09:32;;;;;;;12.55;3.20;;;;;;;-10.51;68.17;102392.91;5056113;28;20079;-72
2023/12/06 01:12:00;;;;;;;7.85;2.90;;;;;;;-10.51;67.87;102400.50;5062981;28;20565;-72
2023/12/06 01:14:26;;;;;;;6.65;1.88;;;;;;;-10.54;67.58;102387.56;5058287;28;20076;-72
2023/12/06 01:16:53;;;;;;;8.57;3.10;;;;;;;-10.56;68.02;102384.03;5058179;28;20596;-72
2023/12/06 01:19:20;;;;;;;8.35;3.10;;;;;;;-10.57;67.66;102388.94;5060862;28;20049;-72
2023/12/06 01:21:49;;;;;;;7.03;2.05;;;;;;;-10.60;67.69;102384.50;5059660;28;20507;-72
2023/12/06 01:24:16;;;;;;;6.68;2.28;;;;;;;-10.62;67.53;102382.59;5056003;28;20167;-72
2023/12/06 01:26:42;;;;;;;4.53;1.73;;;;;;;-10.63;67.69;102385.88;5062710;28;20550;-72
2023/12/06 01:29:10;;;;;;;6.20;1.65;;;;;;;-10.65;68.18;102387.38;5061205;28;20124;-72
2023/12/06 01:31:38;;;;;;;3.97;1.73;;;;;;;-10.68;67.81;102384.59;5061940;28;20052;-72
2023/12/06 01:34:05;;;;;;;6.25;1.45;;;;;;;-10.68;67.80;102374.47;5060832;28;20641;-72
2023/12/06 01:36:32;;;;;;;4.97;1.67;;;;;;;-10.71;68.39;102376.72;5061174;28;20058;-72
2023/12/06 01:39:00;;;;;;;8.77;1.77;;;;;;;-10.75;67.81;102375.59;5062954;28;20086;-72
2023/12/06 01:41:27;;;;;;;6.65;1.63;;;;;;;-10.77;67.74;102375.44;5059044;28;20098;-72
2023/12/06 01:43:54;;;;;;;6.28;1.77;;;;;;;-10.78;68.13;102380.38;5056340;28;20075;-72
2023/12/06 01:46:21;;;;;;;6.85;1.95;;;;;;;-10.80;67.73;102381.88;5062741;28;20076;-72
2023/12/06 01:48:49;;;;;;;8.23;1.73;;;;;;;-10.83;68.16;102376.53;5060340;28;20048;-72
2023/12/06 01:51:18;;;;;;;3.97;1.52;;;;;;;-10.85;67.74;102373.84;5060855;28;20080;-71
2023/12/06 01:53:46;;;;;;;3.85;1.10;;;;;;;-10.89;68.17;102379.41;5059976;28;20119;-72
2023/12/06 01:56:14;;;;;;;3.35;1.05;;;;;;;-10.92;67.47;102376.59;5057794;28;20053;-72
2023/12/06 01:58:41;;;;;;;8.45;1.65;;;;;;;-10.90;67.65;102381.78;5060140;28;20073;-74
2023/12/06 02:01:08;;;;;;;6.22;1.88;;;;;;;-10.91;67.53;102378.38;5062306;28;20064;-73
2023/12/06 02:03:36;;;;;;;3.38;1.30;;;;;;;-10.94;67.73;102380.63;5055921;28;20501;-73
2023/12/06 02:06:03;;;;;;;5.45;1.55;;;;;;;-10.96;68.37;102377.06;5059572;28;20122;-73
2023/12/06 02:08:32;;;;;;;5.40;1.08;;;;;;;-10.99;67.59;102381.84;5056660;28;20072;-73
2023/12/06 02:10:58;;;;;;;4.40;1.08;;;;;;;-11.00;67.61;102385.13;5063873;28;20132;-73
2023/12/06 02:13:28;;;;;;;3.30;1.05;;;;;;;-11.02;68.04;102394.22;5055062;28;20149;-72
2023/12/06 02:15:55;;;;;;;4.15;1.17;;;;;;;-11.04;67.92;102386.50;5056811;28;20077;-73
2023/12/06 02:18:23;;;;;;;4.68;1.10;;;;;;;-11.05;68.03;102391.41;5061628;28;20083;-73
2023/12/06 02:20:51;;;;;;;3.55;0.93;;;;;;;-11.06;67.75;102384.59;5061348;28;20113;-74
2023/12/06 02:23:18;;;;;;;4.35;1.35;;;;;;;-11.08;67.53;102384.44;5055624;28;20139;-73
2023/12/06 02:25:46;;;;;;;5.70;1.60;;;;;;;-11.09;67.56;102385.19;5061132;28;20073;-73
2023/12/06 02:28:13;;;;;;;5.03;1.38;;;;;;;-11.11;68.22;102385.81;5058809;28;20471;-74
2023/12/06 02:30:40;;;;;;;4.65;1.15;;;;;;;-11.12;67.99;102381.50;5058629;28;20076;-72
2023/12/06 02:33:07;;;;;;;3.17;1.33;;;;;;;-11.14;68.29;102377.94;5057867;28;20076;-73
2023/12/06 02:35:41;;;;;;;7.50;1.38;;;;;;;-11.18;67.85;102375.16;5056939;28;20116;-73
2023/12/06 02:38:10;;;;;;;7.85;2.55;;;;;;;-11.21;67.67;102371.47;5062671;28;20056;-73
2023/12/06 02:40:41;;;;;;;4.28;1.50;;;;;;;-11.19;68.20;102382.59;5059974;28;20076;-73
2023/12/06 02:43:09;;;;;;;5.90;1.38;;;;;;;-11.22;67.60;102377.25;5058440;28;20083;-72
2023/12/06 02:45:36;;;;;;;5.22;1.95;;;;;;;-11.24;67.84;102379.66;5056545;28;20159;-73
2023/12/06 02:48:05;;;;;;;8.18;1.70;;;;;;;-11.26;67.77;102381.16;5057217;28;20084;-73
2023/12/06 02:50:32;;;;;;;7.05;1.75;;;;;;;-11.28;67.39;102382.66;5056439;28;20073;-73
2023/12/06 02:52:59;;;;;;;7.75;1.88;;;;;;;-11.28;67.92;102381.78;5059937;28;20125;-73
2023/12/06 02:55:26;;;;;;;6.30;1.33;;;;;;;-11.29;67.93;102385.06;5063299;28;20118;-73
2023/12/06 02:57:53;;;;;;;10.52;1.92;;;;;;;-11.30;68.21;102389.25;5058227;28;20080;-72
2023/12/06 03:00:22;;;;;;;4.00;1.25;;;;;;;-11.31;67.92;102389.97;5060639;28;20052;-73
2023/12/06 03:02:48;;;;;;;3.78;1.02;;;;;;;-11.34;68.13;102386.28;5058667;28;20052;-72
2023/12/06 03:05:15;;;;;;;5.93;1.55;;;;;;;-11.34;67.48;102382.13;5060850;28;20065;-73
2023/12/06 03:07:42;;;;;;;7.50;1.73;;;;;;;-11.36;67.39;102382.72;5051258;28;20056;-73
2023/12/06 03:10:10;;;;;;;3.90;1.40;;;;;;;-11.39;67.72;102383.34;5062232;28;20056;-73
2023/12/06 03:12:37;;;;;;;6.50;2.13;;;;;;;-11.44;67.68;102379.53;5057473;28;20070;-74
2023/12/06 03:15:04;;;;;;;5.97;1.85;;;;;;;-11.43;67.37;102383.81;5055558;28;20386;-72
2023/12/06 03:17:33;;;;;;;6.60;2.03;;;;;;;-11.45;68.08;102381.13;5058791;28;20080;-73
2023/12/06 03:20:00;;;;;;;4.70;1.42;;;;;;;-11.44;67.94;102382.94;5058680;28;20078;-78
2023/12/06 03:22:27;;;;;;;6.63;1.20;;;;;;;-11.45;68.10;102387.81;5059699;28;20084;-78
2023/12/06 03:24:54;;;;;;;7.97;1.73;;;;;;;-11.46;67.54;102386.94;5065495;28;20163;-77
2023/12/06 03:27:20;;;;;;;6.00;1.85;;;;;;;-11.46;67.42;102391.09;5062145;28;20045;-77
2023/12/06 03:29:47;;;;;;;5.40;1.45;;;;;;;-11.47;67.62;102389.34;5057665;28;20474;-78
2023/12/06 03:32:14;;;;;;;5.47;1.95;;;;;;;-11.48;67.95;102395.13;5068354;28;20075;-77
2023/12/06 03:34:43;;;;;;;5.07;1.90;;;;;;;-11.50;67.38;102394.09;5054597;28;20041;-77
2023/12/06 03:37:10;;;;;;;5.53;1.55;;;;;;;-11.52;67.46;102400.66;5057278;28;20127;-77
2023/12/06 03:39:36;;;;;;;3.47;1.05;;;;;;;-11.53;67.70;102401.38;5063679;28;20080;-78
2023/12/06 03:42:04;;;;;;;6.40;1.30;;;;;;;-11.54;67.89;102402.13;5062382;28;20037;-77
2023/12/06 03:44:31;;;;;;;4.20;1.30;;;;;;;-11.55;67.98;102406.31;5068710;28;20411;-77
2023/12/06 03:46:58;;;;;;;5.70;1.23;;;;;;;-11.56;67.52;102403.63;5056699;28;20114;-77
2023/12/06 03:49:25;;;;;;;3.78;1.38;;;;;;;-11.58;67.59;102403.50;5060054;28;20076;-77
2023/12/06 03:51:53;;;;;;;3.30;1.08;;;;;;;-11.59;67.69;102408.41;5062816;28;20076;-77
2023/12/06 03:54:20;;;;;;;8.65;1.55;;;;;;;-11.60;67.75;102412.56;5058231;28;20491;-77
2023/12/06 03:56:48;;;;;;;4.57;1.05;;;;;;;-11.62;67.73;102419.09;5059244;28;20112;-77
2023/12/06 03:59:15;;;;;;;7.05;3.00;;;;;;;-11.63;67.77;102411.41;5057890;28;20060;-77
2023/12/06 04:01:44;;;;;;;4.95;1.30;;;;;;;-11.65;67.74;102418.81;5063301;28;20068;-77
2023/12/06 04:04:11;;;;;;;6.28;1.30;;;;;;;-11.66;67.84;102415.41;5062887;28;20752;-77
2023/12/06 04:06:38;;;;;;;5.38;1.10;;;;;;;-11.67;67.73;102415.25;5060842;28;20045;-77
2023/12/06 04:09:07;;;;;;;4.18;1.20;;;;;;;-11.68;67.84;102419.41;5062250;28;20502;-77
2023/12/06 04:11:34;;;;;;;4.20;1.20;;;;;;;-11.69;67.69;102429.41;5058721;28;20056;-78
2023/12/06 04:14:01;;;;;;;6.22;1.30;;;;;;;-11.69;67.94;102425.22;5066396;28;20835;-77
2023/12/06 04:16:29;;;;;;;3.95;1.00;;;;;;;-11.71;67.95;102424.19;5063130;28;20091;-77
2023/12/06 04:18:55;;;;;;;3.90;0.65;;;;;;;-11.72;68.00;102426.59;5065264;28;20668;-72
2023/12/06 04:21:23;;;;;;;1.08;0.55;;;;;;;-11.74;67.62;102428.94;5061380;28;20072;-72
2023/12/06 04:23:50;;;;;;;5.55;1.13;;;;;;;-11.75;67.86;102437.28;5058947;28;20079;-72
2023/12/06 04:26:18;;;;;;;4.75;0.90;;;;;;;-11.76;67.75;102432.06;5062854;28;20072;-73
2023/12/06 04:28:45;;;;;;;4.25;1.05;;;;;;;-11.77;67.54;102435.34;5060165;28;20457;-72
2023/12/06 04:31:12;;;;;;;3.47;0.85;;;;;;;-11.78;67.79;102442.03;5058938;28;20581;-74
2023/12/06 04:33:40;;;;;;;2.35;1.00;;;;;;;-11.81;67.74;102434.19;5061172;28;20139;-74
2023/12/06 04:36:07;;;;;;;1.73;0.70;;;;;;;-11.81;67.70;102434.19;5056870;28;20049;-72
2023/12/06 04:38:34;;;;;;;2.65;0.65;;;;;;;-11.84;67.64;102425.41;5062815;28;20570;-73
2023/12/06 04:41:01;;;;;;;4.32;0.80;;;;;;;-11.84;67.98;102431.38;5063712;28;20544;-73
2023/12/06 04:43:30;;;;;;;3.72;0.52;;;;;;;-11.85;67.71;102418.59;5062031;28;21120;-72
2023/12/06 04:45:57;;;;;;;1.90;0.60;;;;;;;-11.86;67.68;102425.28;5059177;28;20502;-72
2023/12/06 04:48:24;;;;;;;2.38;0.60;;;;;;;-11.87;67.88;102415.91;5059406;28;20589;-72
2023/12/06 04:50:51;;;;;;;2.15;0.50;;;;;;;-11.91;67.47;102418.91;5063140;28;20098;-72
2023/12/06 04:53:18;;;;;;;4.30;1.00;;;;;;;-11.91;67.67;102423.97;5060399;28;20566;-72
2023/12/06 04:55:45;;;;;;;3.70;0.60;;;;;;;-11.93;67.84;102421.31;5057051;28;20648;-73
2023/12/06 04:58:13;;;;;;;2.05;0.60;;;;;;;-11.98;67.70;102421.63;5057410;28;20040;-72
2023/12/06 05:00:43;;;;;;;2.92;0.60;;;;;;;-12.00;67.52;102423.09;5055773;28;20041;-72
2023/12/06 05:03:10;;;;;;;1.55;0.60;;;;;;;-12.02;67.43;102434.69;5059530;28;20048;-72
2023/12/06 05:05:37;;;;;;;2.50;0.57;;;;;;;-12.04;67.87;102434.56;5058664;28;20801;-71
2023/12/06 05:08:05;;;;;;;1.70;0.50;;;;;;;-12.06;67.55;102435.16;5059453;28;20128;-72
2023/12/06 05:10:32;;;;;;;2.50;0.60;;;;;;;-12.08;67.55;102434.97;5061985;28;20048;-73
2023/12/06 05:12:59;;;;;;;2.35;0.60;;;;;;;-12.10;67.41;102432.34;5059102;28;20135;-73
2023/12/06 05:15:26;;;;;;;1.42;0.40;;;;;;;-12.12;67.22;102428.78;5060127;28;20120;-72
2023/12/06 05:17:55;;;;;;;2.30;0.50;;;;;;;-12.12;67.66;102433.81;5059677;28;20068;-72
2023/12/06 05:20:22;;;;;;;1.50;0.50;;;;;;;-12.15;67.68;102425.97;5060996;28;20148;-72
2023/12/06 05:22:49;;;;;;;4.07;1.00;;;;;;;-12.15;67.53;102433.53;5061442;28;20048;-72
2023/12/06 05:25:16;;;;;;;3.63;0.68;;;;;;;-12.17;67.40;102429.97;5054567;28;20163;-72
2023/12/06 05:27:43;;;;;;;3.15;0.90;;;;;;;-12.20;67.56;102427.16;5034425;28;20607;-72
2023/12/06 05:30:11;;;;;;;4.03;1.23;;;;;;;-12.21;67.66;102426.97;5062712;28;20076;-71
2023/12/06 05:32:38;;;;;;;5.43;1.02;;;;;;;-12.23;67.41;102426.84;5058879;28;20461;-71
2023/12/06 05:35:08;;;;;;;2.55;0.70;;;;;;;-12.22;67.23;102426.09;5058316;28;20069;-71
2023/12/06 05:37:35;;;;;;;2.33;0.77;;;;;;;-12.25;67.83;102433.38;5060374;28;20572;-71
2023/12/06 05:40:03;;;;;;;3.35;0.50;;;;;;;-12.25;67.59;102432.50;5059690;28;20624;-69
2023/12/06 05:42:30;;;;;;;3.65;0.75;;;;;;;-12.28;67.55;102435.59;5053842;28;20047;-70
2023/12/06 05:44:57;;;;;;;5.32;0.95;;;;;;;-12.29;67.55;102441.41;5055965;28;20072;-69
2023/12/06 05:47:25;;;;;;;4.63;0.77;;;;;;;-12.30;67.26;102439.59;5052563;28;20119;-70
2023/12/06 05:49:52;;;;;;;3.78;0.60;;;;;;;-12.30;67.42;102447.19;5046621;28;20076;-70
2023/12/06 05:52:20;;;;;;;3.35;0.95;;;;;;;-12.30;67.15;102446.28;5056442;28;20175;-70
2023/12/06 05:54:47;;;;;;;3.42;0.75;;;;;;;-12.31;67.64;102445.41;5061201;28;20135;-70
2023/12/06 05:57:14;;;;;;;1.65;0.60;;;;;;;-12.33;67.84;102451.94;5057094;28;20048;-70
2023/12/06 05:59:41;;;;;;;2.58;0.80;;;;;;;-12.35;67.66;102443.34;5059890;28;20069;-70
2023/12/06 06:02:08;;;;;;;3.53;0.63;;;;;;;-12.38;67.40;102454.03;5057020;28;20044;-70
2023/12/06 06:04:35;;;;;;;3.70;0.95;;;;;;;-12.35;67.99;102458.47;5061029;28;20129;-70
2023/12/06 06:07:02;;;;;;;2.22;0.65;;;;;;;-12.37;67.19;102459.97;5057666;28;20076;-70
2023/12/06 06:09:30;;;;;;;2.33;0.60;;;;;;;-12.38;67.44;102463.22;5058705;28;20141;-69
2023/12/06 06:11:57;;;;;;;2.55;0.95;;;;;;;-12.40;67.42;102469.75;5058574;28;20072;-70
2023/12/06 06:14:24;;;;;;;3.67;0.70;;;;;;;-12.42;67.31;102467.06;5056340;28;20570;-70
2023/12/06 06:16:51;;;;;;;5.03;0.88;;;;;;;-12.42;67.24;102468.69;5062705;28;20131;-69
2023/12/06 06:19:18;;;;;;;7.13;1.00;;;;;;;-12.42;67.34;102473.75;5060255;28;20053;-69
2023/12/06 06:21:45;;;;;;;3.20;0.80;;;;;;;-12.45;67.47;102466.78;5056757;28;20072;-69
2023/12/06 06:24:12;;;;;;;4.25;0.80;;;;;;;-12.46;67.91;102469.16;5060196;28;20861;-69
2023/12/06 06:26:40;;;;;;;3.70;1.15;;;;;;;-12.47;67.46;102478.34;5054169;28;20132;-69
2023/12/06 06:29:08;;;;;;;4.15;1.00;;;;;;;-12.48;67.64;102485.78;5057388;28;20156;-69
2023/12/06 06:31:35;;;;;;;3.88;0.85;;;;;;;-12.48;67.33;102485.78;5056392;28;20054;-70
2023/12/06 06:34:02;;;;;;;5.53;1.05;;;;;;;-12.52;67.28;102478.63;5059044;28;20080;-69
2023/12/06 06:36:29;;;;;;;4.97;0.90;;;;;;;-12.52;67.60;102479.53;5057031;28;20055;-70
2023/12/06 06:38:56;;;;;;;3.85;0.77;;;;;;;-12.52;67.47;102483.66;5051986;28;20573;-72
2023/12/06 06:41:24;;;;;;;3.40;0.90;;;;;;;-12.53;67.23;102486.94;5058523;28;20443;-71
2023/12/06 06:43:53;;;;;;;3.97;0.98;;;;;;;-12.55;67.55;102479.25;5057289;28;20521;-71
2023/12/06 06:46:20;;;;;;;5.53;1.10;;;;;;;-12.57;67.56;102484.13;5057553;28;20084;-70
2023/12/06 06:48:48;;;;;;;5.03;1.02;;;;;;;-12.57;67.50;102494.22;5061272;28;20045;-70
2023/12/06 06:51:15;;;;;;;4.50;1.02;;;;;;;-12.58;67.44;102491.56;5061415;28;20413;-70
2023/12/06 06:53:42;;;;;;;6.68;1.00;;;;;;;-12.60;67.26;102498.97;5061612;28;20084;-70
2023/12/06 06:56:09;;;;;;;5.78;1.65;;;;;;;-12.62;67.27;102497.91;5055808;28;20098;-70
2023/12/06 06:58:36;;;;;;;8.45;2.05;;;;;;;-12.62;67.34;102507.09;5058576;28;20041;-70
2023/12/06 07:01:05;;;;;;;8.55;1.33;;;;;;;-12.64;67.35;102503.53;5056512;28;20103;-70
2023/12/06 07:03:32;;;;;;;5.22;1.42;;;;;;;-12.66;67.73;102500.88;5057960;28;20064;-70
2023/12/06 07:06:02;;;;;;;4.05;0.70;;;;;;;-12.67;67.48;102499.09;5054828;28;20055;-70
2023/12/06 07:08:29;;;;;;;7.03;1.00;;;;;;;-12.69;67.53;102505.63;5056434;28;20047;-70
2023/12/06 07:10:57;;;;;;;6.82;1.45;;;;;;;-12.69;67.38;102512.31;5057061;28;20048;-70
2023/12/06 07:13:25;;;;;;;4.65;1.13;;;;;;;-12.71;67.18;102516.28;5052863;28;20102;-71
2023/12/06 07:15:53;;;;;;;3.55;1.20;;;;;;;-12.71;67.51;102514.66;5055258;28;20185;-70
2023/12/06 07:18:21;;;;;;;5.57;1.65;;;;;;;-12.71;67.52;102516.28;5056256;28;20101;-71
2023/12/06 07:20:49;;;;;;;4.75;1.08;;;;;;;-12.72;67.22;102522.06;5056618;28;20451;-70
2023/12/06 07:23:16;;;;;;;4.28;1.05;;;;;;;-12.71;67.62;102521.34;5048210;28;20047;-71
2023/12/06 07:25:43;;;;;;;3.10;0.90;;;;;;;-12.73;67.54;102523.69;5055820;28;20060;-70
2023/12/06 07:28:10;;;;;;;2.42;0.77;;;;;;;-12.75;67.53;102522.69;5056715;28;20049;-71
2023/12/06 07:30:37;;;;;;;4.45;0.80;;;;;;;-12.75;67.22;102515.09;5057713;28;20068;-70
2023/12/06 07:33:04;;;;;;;5.72;0.90;;;;;;;-12.75;67.45;102514.19;5057355;28;20072;-70
2023/12/06 07:35:33;;;;;;;3.22;1.20;;;;;;;-12.75;67.22;102520.16;5054090;28;20077;-70
2023/12/06 07:38:00;;;;;;;2.85;1.05;;;;;;;-12.76;67.22;102523.38;5059319;28;20041;-70
2023/12/06 07:40:26;;;;;;;7.53;1.85;;;;;;;-12.77;67.42;102521.63;5055221;28;20502;-70
2023/12/06 07:42:53;;;;;;;9.30;1.90;;;;;;;-12.77;67.25;102524.13;5054833;28;20491;-70
2023/12/06 07:45:20;;;;;;;6.57;1.80;;;;;;;-12.78;67.50;102522.38;5056048;28;20135;-70
2023/12/06 07:47:47;;;;;;;6.35;1.67;;;;;;;-12.78;67.61;102527.41;5057789;28;20080;-70
2023/12/06 07:50:15;;;;;;;8.85;2.15;;;;;;;-12.78;67.50;102527.41;5060648;28;20136;-71
2023/12/06 07:52:44;;;;;;;4.10;1.60;;;;;;;-12.79;67.32;102531.53;5055936;28;20091;-71
2023/12/06 07:55:13;;;;;;;8.25;1.40;;;;;;;-12.81;67.25;102520.44;5059331;28;20501;-71
2023/12/06 07:57:40;;;;;;;9.95;2.00;;;;;;;-12.79;67.52;102523.97;5056940;28;20045;-71
2023/12/06 08:00:11;;;;;;;3.75;1.52;;;;;;;-12.81;67.67;102524.56;5067255;28;20072;-82
2023/12/06 08:02:39;;;;;;;8.10;1.50;;;;;;;-12.81;67.34;102532.13;5065413;28;20057;-82
2023/12/06 08:05:07;;;;;;;3.50;1.35;;;;;;;-12.82;67.31;102517.75;5066521;28;20048;-83
2023/12/06 08:07:34;;;;;;;4.28;0.88;;;;;;;-12.83;67.36;102521.03;5063240;28;20041;-83
2023/12/06 08:10:07;;;;;;;5.38;1.48;;;;;;;-12.84;67.52;102529.28;5072040;28;20082;-83
2023/12/06 08:12:35;;;;;;;4.85;1.13;;;;;;;-12.86;67.20;102533.34;5067328;28;20132;-82
2023/12/06 08:15:05;;;;;;;8.95;1.42;;;;;;;-12.89;67.70;102528.91;5062240;28;20143;-82
2023/12/06 08:17:32;;;;;;;1.73;0.98;;;;;;;-12.86;67.37;102538.41;5061989;28;20076;-82
2023/12/06 08:19:59;;;;;;;8.45;2.50;;;;;;;-12.86;67.21;102535.88;5061073;28;20474;-83
2023/12/06 08:22:26;;;;;;;5.65;1.15;;;;;;;-12.86;67.57;102536.75;5064661;28;20127;-82
2023/12/06 08:24:56;;;;;;;8.60;1.48;;;;;;;-12.85;67.62;102533.44;5065160;28;20048;-83
2023/12/06 08:27:28;;;;;;;6.40;1.27;;;;;;;-12.85;67.58;102535.97;5074546;28;20444;-83
2023/12/06 08:29:55;;;;;;;4.95;1.38;;;;;;;-12.86;67.42;102531.72;5060298;28;20100;-82
2023/12/06 08:32:22;;;;;;;3.47;1.40;;;;;;;-12.90;67.46;102523.69;5062627;28;20078;-82
2023/12/06 08:34:49;;;;;;;5.35;2.25;;;;;;;-12.81;67.69;102535.56;5061609;28;20049;-82
2023/12/06 08:37:16;;;;;;;7.70;1.60;;;;;;;-12.83;67.40;102532.00;5069871;28;20048;-82
2023/12/06 08:39:44;;;;;;;7.20;1.58;;;;;;;-12.79;67.63;102544.13;5068819;28;20525;-83
2023/12/06 08:42:13;;;;;;;4.25;1.20;;;;;;;-12.76;67.05;102536.00;5067493;28;20045;-83
2023/12/06 08:44:43;;;;;;;10.68;1.83;;;;;;;-12.74;67.59;102532.00;5066601;28;20076;-82
2023/12/06 08:47:10;;;;;;;14.05;2.03;;;;;;;-12.72;67.60;102535.56;5073014;28;20036;-83
2023/12/06 08:49:38;;;;;;;8.88;1.95;;;;;;;-12.71;67.48;102536.47;5064940;28;20120;-82
2023/12/06 08:52:06;;;;;;;6.22;1.35;;;;;;;-12.68;67.85;102546.84;5068763;28;20049;-82
2023/12/06 08:54:34;;;;;;;6.53;1.90;;;;;;;-12.66;67.71;102548.78;5068205;28;20079;-83
2023/12/06 08:57:01;;;;;;;8.13;1.73;;;;;;;-12.65;67.63;102537.94;5068284;28;20084;-82
2023/12/06 08:59:28;;;;;;;7.18;1.55;;;;;;;-12.61;67.57;102549.22;5060530;28;20076;-71
2023/12/06 09:01:56;;;;;;;5.30;1.73;;;;;;;-12.58;67.61;102549.53;5058120;28;20053;-71
2023/12/06 09:04:23;;;;;;;11.88;2.15;;;;;;;-12.56;67.70;102553.97;5056826;28;20069;-70
2023/12/06 09:06:50;;;;;;;5.30;2.08;;;;;;;-12.52;67.76;102559.31;5056800;28;20102;-70
2023/12/06 09:09:18;;;;;;;7.97;1.90;;;;;;;-12.49;67.80;102554.59;5054540;28;20079;-70
2023/12/06 09:11:46;;;;;;;6.93;1.85;;;;;;;-12.47;67.89;102553.09;5057919;28;20044;-70
2023/12/06 09:14:13;;;;;;;8.55;1.75;;;;;;;-12.46;67.66;102555.78;5057693;28;20592;-69
2023/12/06 09:16:40;;;;;;;7.32;1.80;;;;;;;-12.42;67.71;102559.50;5060893;28;20053;-69
2023/12/06 09:19:09;;;;;;;7.00;1.50;;;;;;;-12.40;67.63;102551.34;5056413;28;20041;-70
2023/12/06 09:21:43;;;;;;;4.25;1.40;;;;;;;-12.37;67.52;102545.72;5056796;28;20068;-70
2023/12/06 09:24:11;;;;;;;4.83;1.33;;;;;;;-12.32;67.67;102549.59;5060349;28;20495;-70
2023/12/06 09:26:38;;;;;;;7.63;1.77;;;;;;;-12.32;67.81;102555.50;5061261;28;20044;-70
2023/12/06 09:29:06;;;;;;;7.88;1.70;;;;;;;-12.29;67.86;102547.34;5058004;28;20135;-70
2023/12/06 09:31:33;;;;;;;5.97;1.77;;;;;;;-12.24;67.92;102547.78;5052011;28;20051;-70
2023/12/06 09:34:01;;;;;;;3.08;1.42;;;;;;;-12.20;67.92;102544.84;5058502;28;20473;-70
2023/12/06 09:36:30;;;;;;;7.45;1.23;;;;;;;-12.17;67.69;102555.22;5054506;28;20076;-69
2023/12/06 09:38:57;;;;;;;4.18;1.20;;;;;;;-12.15;67.50;102554.63;5059488;28;20136;-70
2023/12/06 09:41:29;;;;;;;5.82;0.65;;;;;;;-12.11;67.72;102563.38;5051445;28;20388;-69
2023/12/06 09:43:56;;;;;;;2.08;0.55;;;;;;;-12.07;67.77;102560.41;5056707;28;20044;-69
2023/12/06 09:46:24;;;;;;;4.55;0.63;;;;;;;-12.05;67.83;102560.56;5057453;28;20132;-69
2023/12/06 09:48:52;;;;;;;3.67;1.02;;;;;;;-11.99;67.95;102568.72;5055814;28;20550;-69
2023/12/06 09:51:20;;;;;;;6.20;1.90;;;;;;;-11.96;67.77;102558.91;5058695;28;20049;-70
2023/12/06 09:53:49;;;;;;;7.60;1.65;;;;;;;-11.92;67.98;102563.53;5060890;28;20095;-70
2023/12/06 09:56:16;;;;;;;8.32;1.30;;;;;;;-11.88;67.81;102560.53;5058344;28;20451;-70
2023/12/06 09:58:43;;;;;;;5.10;1.38;;;;;;;-11.85;68.23;102560.84;5059257;28;20152;-70
2023/12/06 10:01:10;;;;;;;4.15;1.38;;;;;;;-11.81;67.84;102562.00;5057690;28;20521;-70
2023/12/06 10:03:39;;;;;;;3.78;0.98;;;;;;;-11.79;67.93;102548.78;5059537;28;20429;-70
2023/12/06 10:06:06;;;;;;;2.17;0.70;;;;;;;-11.75;67.82;102547.47;5059334;28;20049;-71
2023/12/06 10:08:34;;;;;;;4.13;0.82;;;;;;;-11.72;67.71;102547.78;5057312;28;20113;-74
2023/12/06 10:11:04;;;;;;;5.13;0.70;;;;;;;-11.68;67.87;102555.75;5053863;28;20051;-71
2023/12/06 10:13:35;;;;;;;2.10;0.52;;;;;;;-11.66;67.97;102558.44;5057034;28;20131;-71
2023/12/06 10:16:03;;;;;;;1.70;0.68;;;;;;;-11.59;67.70;102564.97;5057673;28;20044;-72
2023/12/06 10:18:30;;;;;;;5.38;0.82;;;;;;;-11.56;68.22;102565.25;5057479;28;20068;-71
2023/12/06 10:20:57;;;;;;;3.75;0.80;;;;;;;-11.53;67.93;102563.94;5060354;28;20155;-71
2023/12/06 10:23:24;;;;;;;2.55;0.80;;;;;;;-11.49;68.01;102565.09;5056965;28;20151;-71
2023/12/06 10:25:51;;;;;;;5.55;0.88;;;;;;;-11.46;67.92;102557.81;5059308;28;20513;-71
2023/12/06 10:28:20;;;;;;;5.63;1.30;;;;;;;-11.44;67.74;102561.38;5054550;28;20445;-71
2023/12/06 10:30:47;;;;;;;3.95;0.77;;;;;;;-11.39;68.25;102562.69;5055220;28;20045;-71
2023/12/06 10:33:19;;;;;;;4.35;0.80;;;;;;;-11.35;67.91;102567.28;5061178;28;20045;-71
2023/12/06 10:35:48;;;;;;;3.17;1.05;;;;;;;-11.31;68.38;102568.47;5060634;28;20076;-71
2023/12/06 10:38:16;;;;;;;3.83;1.30;;;;;;;-11.32;68.31;102571.75;5055879;28;20521;-72
2023/12/06 10:40:43;;;;;;;3.38;1.40;;;;;;;-11.25;68.28;102580.00;5056139;28;21411;-71
2023/12/06 10:43:12;;;;;;;3.88;1.23;;;;;;;-11.21;67.71;102586.25;5056276;28;20080;-71
2023/12/06 10:45:41;;;;;;;3.50;1.35;;;;;;;-11.22;68.35;102579.41;5058134;28;20041;-71
2023/12/06 10:48:09;;;;;;;4.00;1.20;;;;;;;-11.12;68.01;102586.22;5057600;28;20068;-72
2023/12/06 10:50:36;;;;;;;3.03;1.15;;;;;;;-11.10;67.69;102583.09;5055492;28;20082;-71
2023/12/06 10:53:05;;;;;;;4.28;0.70;;;;;;;-11.06;68.42;102584.25;5058356;28;20136;-71
2023/12/06 10:55:34;;;;;;;4.35;1.17;;;;;;;-11.03;68.07;102582.00;5055727;28;20048;-71
2023/12/06 10:58:01;;;;;;;4.07;0.98;;;;;;;-10.99;68.38;102586.59;5056191;28;20183;-71
2023/12/06 11:00:28;;;;;;;2.50;0.80;;;;;;;-10.95;67.75;102588.69;5054084;28;20137;-72
2023/12/06 11:02:57;;;;;;;4.47;0.82;;;;;;;-10.91;68.06;102582.25;5057225;28;20102;-72
2023/12/06 11:05:25;;;;;;;3.45;1.17;;;;;;;-10.89;67.88;102579.13;5053716;28;20096;-71
2023/12/06 11:08:24;;;;;;;2.58;1.10;;;;;;;-10.86;68.29;102576.88;5055687;28;20542;-72
2023/12/06 11:11:05;;;;;;;3.03;1.10;;;;;;;-10.82;68.20;102568.84;5055671;28;20076;-71
2023/12/06 11:13:44;;;;;;;6.40;1.40;;;;;;;-10.81;68.37;102568.09;5055880;28;20076;-72
2023/12/06 11:16:26;;;;;;;4.18;1.13;;;;;;;-10.79;67.85;102563.16;5056690;28;20095;-71
2023/12/06 11:18:56;;;;;;;6.15;1.20;;;;;;;-10.76;68.26;102559.28;5059164;28;20483;-70